createdAt,value
2019-03-01T00:01:37.652Z,77.30
2019-03-01T00:04:22.752Z,77.40
2019-03-01T00:07:07.220Z,78.40
2019-03-01T00:09:52.280Z,79.30
2019-03-01T00:12:37.459Z,80.20
2019-03-01T00:15:31.272Z,79.20
2019-03-01T00:18:16.272Z,81.00
2019-03-01T00:21:09.988Z,80.50
2019-03-01T00:23:56.068Z,82.10
2019-03-01T00:26:41.332Z,84.40
2019-03-01T00:29:26.025Z,85.70
2019-03-01T00:32:10.959Z,87.30
2019-03-01T00:34:56.092Z,87.90
2019-03-01T00:37:49.577Z,88.70
2019-03-01T00:40:34.648Z,89.70
2019-03-01T00:43:19.459Z,90.90
2019-03-01T00:46:04.083Z,90.70
2019-03-01T00:48:49.026Z,91.10
2019-03-01T00:51:34.076Z,91.40
2019-03-01T00:54:18.452Z,91.70
2019-03-01T00:57:02.997Z,91.70
2019-03-01T00:59:57.329Z,91.50
2019-03-01T01:02:41.646Z,91.60
2019-03-01T01:05:25.986Z,91.90
2019-03-01T01:08:19.880Z,92.30
2019-03-01T01:11:05.612Z,92.20
2019-03-01T01:13:49.951Z,92.00
2019-03-01T01:16:43.350Z,92.00
2019-03-01T01:19:28.021Z,92.10
2019-03-01T01:22:13.016Z,92.30
2019-03-01T01:24:58.223Z,92.60
2019-03-01T01:27:52.289Z,92.90
2019-03-01T01:30:45.732Z,93.00
2019-03-01T01:33:30.748Z,93.00
2019-03-01T01:36:15.639Z,92.90
2019-03-01T01:39:00.531Z,92.60
2019-03-01T01:41:54.548Z,92.60
2019-03-01T01:44:39.284Z,92.60
2019-03-01T01:47:23.951Z,92.60
2019-03-01T01:50:08.470Z,92.50
2019-03-01T01:52:53.512Z,92.60
2019-03-01T01:55:37.640Z,92.60
2019-03-01T01:58:31.271Z,92.60
2019-03-01T02:01:15.855Z,92.50
2019-03-01T02:04:00.845Z,92.10
2019-03-01T02:06:45.459Z,92.00
2019-03-01T02:09:30.440Z,91.50
2019-03-01T02:12:15.381Z,91.40
2019-03-01T02:15:08.908Z,91.70
2019-03-01T02:17:53.592Z,92.10
2019-03-01T02:20:38.259Z,91.90
2019-03-01T02:23:23.032Z,91.60
2019-03-01T02:26:07.705Z,91.00
2019-03-01T02:28:52.716Z,90.80
2019-03-01T02:31:37.043Z,90.90
2019-03-01T02:34:30.389Z,90.90
2019-03-01T02:37:14.717Z,90.80
2019-03-01T02:39:59.111Z,90.90
2019-03-01T02:42:52.441Z,89.80
2019-03-01T02:45:36.915Z,90.70
2019-03-01T02:48:21.553Z,90.60
2019-03-01T02:51:06.277Z,89.70
2019-03-01T02:53:51.148Z,89.70
2019-03-01T02:56:35.644Z,90.70
2019-03-01T02:59:29.221Z,91.10
2019-03-01T03:02:14.297Z,90.80
2019-03-01T03:05:07.952Z,89.50
2019-03-01T03:11:02.817Z,89.40
2019-03-01T03:13:48.002Z,89.60
2019-03-01T03:16:32.818Z,89.30
2019-03-01T03:19:17.392Z,89.80
2019-03-01T03:22:01.916Z,90.20
2019-03-01T03:24:47.111Z,89.80
2019-03-01T03:27:32.226Z,90.00
2019-03-01T03:30:16.821Z,91.00
2019-03-01T03:33:01.226Z,91.80
2019-03-01T03:35:45.698Z,92.40
2019-03-01T03:38:39.068Z,93.00
2019-03-01T03:41:23.257Z,93.60
2019-03-01T03:44:08.045Z,94.10
2019-03-01T03:46:52.228Z,93.90
2019-03-01T03:49:45.618Z,94.20
2019-03-01T03:52:30.449Z,94.50
2019-03-01T03:55:15.243Z,94.70
2019-03-01T03:58:00.111Z,95.00
2019-03-01T04:00:43.369Z,95.20
2019-03-01T04:06:47.769Z,95.20
2019-03-01T04:09:32.685Z,95.30
2019-03-01T04:12:17.179Z,95.00
2019-03-01T04:15:01.900Z,95.20
2019-03-01T04:17:46.566Z,95.20
2019-03-01T04:20:31.511Z,94.90
2019-03-01T04:23:16.209Z,95.00
2019-03-01T04:26:00.688Z,94.80
2019-03-01T04:28:53.965Z,94.80
2019-03-01T04:31:38.718Z,94.80
2019-03-01T04:34:23.255Z,94.70
2019-03-01T04:37:07.997Z,94.40
2019-03-01T04:39:52.703Z,94.10
2019-03-01T04:42:37.187Z,94.30
2019-03-01T04:45:30.844Z,94.30
2019-03-01T04:48:15.837Z,94.30
2019-03-01T04:51:10.383Z,94.20
2019-03-01T04:54:03.905Z,94.30
2019-03-01T04:56:48.344Z,94.00
2019-03-01T04:59:33.207Z,94.00
2019-03-01T05:02:18.648Z,94.30
2019-03-01T05:05:12.200Z,93.70
2019-03-01T05:07:56.696Z,93.00
2019-03-01T05:10:41.507Z,92.90
2019-03-01T05:13:25.897Z,91.90
2019-03-01T05:16:10.595Z,92.20
2019-03-01T05:19:03.845Z,92.30
2019-03-01T05:21:48.637Z,92.60
2019-03-01T05:24:33.056Z,92.90
2019-03-01T05:27:17.736Z,93.20
2019-03-01T05:30:02.532Z,93.50
2019-03-01T05:32:45.823Z,93.50
2019-03-01T05:35:38.238Z,93.30
2019-03-01T05:38:31.764Z,93.40
2019-03-01T05:41:16.440Z,93.60
2019-03-01T05:44:01.045Z,93.70
2019-03-01T05:46:45.592Z,93.40
2019-03-01T05:49:40.008Z,93.30
2019-03-01T05:52:24.876Z,92.90
2019-03-01T05:55:09.355Z,92.60
2019-03-01T05:57:54.028Z,91.20
2019-03-01T06:00:38.676Z,90.90
2019-03-01T06:03:23.953Z,90.70
2019-03-01T06:06:08.956Z,90.80
2019-03-01T06:08:53.745Z,90.50
2019-03-01T06:11:38.596Z,90.60
2019-03-01T06:14:23.016Z,90.50
2019-03-01T06:17:07.903Z,90.60
2019-03-01T06:19:52.591Z,91.00
2019-03-01T06:22:37.216Z,91.90
2019-03-01T06:25:21.720Z,91.20
2019-03-01T06:28:14.759Z,91.60
2019-03-01T06:30:59.316Z,92.30
2019-03-01T06:33:43.899Z,92.20
2019-03-01T06:36:37.156Z,92.20
2019-03-01T06:39:40.784Z,91.90
2019-03-01T06:42:29.479Z,91.30
2019-03-01T06:45:14.047Z,91.10
2019-03-01T06:47:58.582Z,91.60
2019-03-01T06:51:02.345Z,92.00
2019-03-01T06:53:46.749Z,92.50
2019-03-01T06:56:40.165Z,92.40
2019-03-01T06:59:24.932Z,92.50
2019-03-01T07:02:11.192Z,92.80
2019-03-01T07:04:56.054Z,93.20
2019-03-01T07:07:41.069Z,93.50
2019-03-01T07:10:25.688Z,94.10
2019-03-01T07:13:11.205Z,94.40
2019-03-01T07:16:04.969Z,94.20
2019-03-01T07:18:49.596Z,93.90
2019-03-01T07:21:34.576Z,94.00
2019-03-01T07:24:19.254Z,94.20
2019-03-01T07:27:04.210Z,94.30
2019-03-01T07:29:49.112Z,93.40
2019-03-01T07:32:42.600Z,93.20
2019-03-01T07:35:27.074Z,93.20
2019-03-01T07:38:20.090Z,93.60
2019-03-01T07:41:06.140Z,93.70
2019-03-01T07:44:00.709Z,93.00
2019-03-01T07:46:52.725Z,92.70
2019-03-01T07:49:32.160Z,93.00
2019-03-01T07:52:16.933Z,93.50
2019-03-01T07:55:01.657Z,94.00
2019-03-01T07:57:46.583Z,94.30
2019-03-01T08:00:32.597Z,93.70
2019-03-01T08:03:17.145Z,94.00
2019-03-01T08:06:01.900Z,93.70
2019-03-01T08:08:46.332Z,94.20
2019-03-01T08:11:39.380Z,94.40
2019-03-01T08:14:24.653Z,95.10
2019-03-01T08:17:10.555Z,95.40
2019-03-01T08:19:58.626Z,95.60
2019-03-01T08:22:48.714Z,95.60
2019-03-01T08:25:28.567Z,95.50
2019-03-01T08:28:13.628Z,95.40
2019-03-01T08:30:58.397Z,95.60
2019-03-01T08:33:43.698Z,95.60
2019-03-01T08:36:38.579Z,95.80
2019-03-01T08:39:23.392Z,95.70
2019-03-01T08:42:07.612Z,95.80
2019-03-01T08:45:01.068Z,95.80
2019-03-01T08:47:45.957Z,95.60
2019-03-01T08:50:30.676Z,95.60
2019-03-01T08:53:16.166Z,95.60
2019-03-01T08:56:00.803Z,95.60
2019-03-01T08:58:54.169Z,95.60
2019-03-01T09:01:41.683Z,95.20
2019-03-01T09:04:24.988Z,94.90
2019-03-01T09:07:09.469Z,94.50
2019-03-01T09:09:57.274Z,94.30
2019-03-01T09:12:40.663Z,93.10
2019-03-01T09:15:34.305Z,93.20
2019-03-01T09:18:27.832Z,92.90
2019-03-01T09:21:13.590Z,92.10
2019-03-01T09:23:58.425Z,91.00
2019-03-01T09:26:42.856Z,90.90
2019-03-01T09:29:41.517Z,91.30
2019-03-01T09:32:23.272Z,90.90
2019-03-01T09:35:39.648Z,91.00
2019-03-01T09:38:31.699Z,91.20
2019-03-01T09:41:16.236Z,90.20
2019-03-01T09:44:09.796Z,90.30
2019-03-01T09:46:54.109Z,90.20
2019-03-01T09:49:38.461Z,90.00
2019-03-01T09:52:23.683Z,90.00
2019-03-01T09:55:17.968Z,90.20
2019-03-01T09:58:02.660Z,89.30
2019-03-01T10:00:56.021Z,90.00
2019-03-01T10:03:34.039Z,90.60
2019-03-01T10:06:18.728Z,90.30
2019-03-01T10:09:04.710Z,90.50
2019-03-01T10:11:51.302Z,90.70
2019-03-01T10:14:35.776Z,91.10
2019-03-01T10:17:21.678Z,91.40
2019-03-01T10:20:15.808Z,91.20
2019-03-01T10:23:09.480Z,90.50
2019-03-01T10:25:54.372Z,89.50
2019-03-01T10:28:38.896Z,90.00
2019-03-01T10:31:23.471Z,90.30
2019-03-01T10:34:08.293Z,89.00
2019-03-01T10:36:52.672Z,90.00
2019-03-01T10:39:54.903Z,90.30
2019-03-01T10:42:32.384Z,90.30
2019-03-01T10:45:17.529Z,90.30
2019-03-01T10:48:01.868Z,90.20
2019-03-01T10:50:46.384Z,88.90
2019-03-01T10:53:31.040Z,88.60
2019-03-01T10:56:15.580Z,88.90
2019-03-01T10:59:08.996Z,88.70
2019-03-01T11:01:54.632Z,90.10
2019-03-01T11:04:39.060Z,90.40
2019-03-01T11:07:32.404Z,90.00
2019-03-01T11:10:16.979Z,90.20
2019-03-01T11:13:10.209Z,90.20
2019-03-01T11:15:55.020Z,90.00
2019-03-01T11:18:39.571Z,89.70
2019-03-01T11:21:24.368Z,90.00
2019-03-01T11:24:09.128Z,89.30
2019-03-01T11:26:53.732Z,90.40
2019-03-01T11:29:38.734Z,90.60
2019-03-01T11:32:23.439Z,89.90
2019-03-01T11:35:07.832Z,89.90
2019-03-01T11:38:01.086Z,90.20
2019-03-01T11:40:45.277Z,90.20
2019-03-01T11:43:30.279Z,90.20
2019-03-01T11:46:14.404Z,90.00
2019-03-01T11:49:07.944Z,90.00
2019-03-01T11:51:52.660Z,90.20
2019-03-01T11:54:37.409Z,89.30
2019-03-01T11:57:21.952Z,88.50
2019-03-01T12:00:05.688Z,88.30
2019-03-01T12:02:50.399Z,86.60
2019-03-01T12:05:35.068Z,88.20
2019-03-01T12:08:19.573Z,88.20
2019-03-01T12:11:04.009Z,89.10
2019-03-01T12:13:49.841Z,88.70
2019-03-01T12:16:34.160Z,88.30
2019-03-01T12:19:18.700Z,87.20
2019-03-01T12:22:04.228Z,87.40
2019-03-01T12:24:49.051Z,86.90
2019-03-01T12:27:34.013Z,86.90
2019-03-01T12:30:18.782Z,88.00
2019-03-01T12:33:02.951Z,88.10
2019-03-01T12:35:47.044Z,88.40
2019-03-01T12:38:40.568Z,88.80
2019-03-01T12:41:25.029Z,89.50
2019-03-01T12:44:09.691Z,89.10
2019-03-01T12:46:54.612Z,90.00
2019-03-01T12:49:39.197Z,88.60
2019-03-01T12:52:23.809Z,88.70
2019-03-01T12:55:17.373Z,89.30
2019-03-01T12:58:02.101Z,89.50
2019-03-01T13:00:46.688Z,89.40
2019-03-01T13:03:31.180Z,88.10
2019-03-01T13:06:15.846Z,87.60
2019-03-01T13:09:00.431Z,89.00
2019-03-01T13:11:48.674Z,88.70
2019-03-01T13:14:41.619Z,88.00
2019-03-01T13:17:26.311Z,89.00
2019-03-01T13:20:10.815Z,87.80
2019-03-01T13:22:55.348Z,88.00
2019-03-01T13:25:48.656Z,88.30
2019-03-01T13:28:33.380Z,87.40
2019-03-01T13:31:17.871Z,87.10
2019-03-01T13:34:02.253Z,87.10
2019-03-01T13:36:55.732Z,88.60
2019-03-01T13:39:40.217Z,86.80
2019-03-01T13:42:34.525Z,86.90
2019-03-01T13:45:19.068Z,87.20
2019-03-01T13:48:03.719Z,86.90
2019-03-01T13:50:48.320Z,86.20
2019-03-01T13:53:34.254Z,84.90
2019-03-01T13:56:27.800Z,82.80
2019-03-01T13:59:12.352Z,81.80
2019-03-01T14:01:57.184Z,80.20
2019-03-01T14:04:41.864Z,79.20
2019-03-01T14:07:26.580Z,80.00
2019-03-01T14:10:11.088Z,80.20
2019-03-01T14:13:04.736Z,80.40
2019-03-01T14:15:50.587Z,78.30
2019-03-01T14:18:36.803Z,76.90
2019-03-01T14:21:21.325Z,76.10
2019-03-01T14:24:14.456Z,74.90
2019-03-01T14:26:59.344Z,75.40
2019-03-01T14:29:43.775Z,74.70
2019-03-01T14:32:28.530Z,75.40
2019-03-01T14:35:13.019Z,76.00
2019-03-01T14:38:08.232Z,74.40
2019-03-01T14:40:52.560Z,74.20
2019-03-01T14:43:37.383Z,73.40
2019-03-01T14:46:22.141Z,73.50
2019-03-01T14:49:06.809Z,71.90
2019-03-01T14:51:51.369Z,73.20
2019-03-01T14:54:45.137Z,72.80
2019-03-01T14:57:33.280Z,73.60
2019-03-01T15:00:26.590Z,73.60
2019-03-01T15:03:15.993Z,73.90
2019-03-01T15:05:57.747Z,73.80
2019-03-01T15:08:44.090Z,73.60
2019-03-01T15:11:28.657Z,73.70
2019-03-01T15:14:13.764Z,73.40
2019-03-01T15:16:58.108Z,71.70
2019-03-01T15:19:44.534Z,70.80
2019-03-01T15:22:29.197Z,70.60
2019-03-01T15:25:22.360Z,69.90
2019-03-01T15:28:07.013Z,70.10
2019-03-01T15:30:51.684Z,70.80
2019-03-01T15:33:36.280Z,70.60
2019-03-01T15:36:20.800Z,71.70
2019-03-01T15:39:16.756Z,72.30
2019-03-01T15:42:00.635Z,72.20
2019-03-01T15:44:45.076Z,71.90
2019-03-01T15:47:29.928Z,72.60
2019-03-01T15:50:14.304Z,74.30
2019-03-01T15:52:58.945Z,74.00
2019-03-01T15:55:52.331Z,73.90
2019-03-01T15:58:37.021Z,73.50
2019-03-01T16:01:21.855Z,74.50
2019-03-01T16:04:06.195Z,74.40
2019-03-01T16:06:55.198Z,74.40
2019-03-01T16:09:37.024Z,75.10
2019-03-01T16:12:32.235Z,75.40
2019-03-01T16:15:06.856Z,75.70
2019-03-01T16:17:39.756Z,75.90
2019-03-01T16:20:33.326Z,76.00
2019-03-01T16:23:18.160Z,77.10
2019-03-01T16:26:03.000Z,78.10
2019-03-01T16:28:47.449Z,79.50
2019-03-01T16:31:32.906Z,80.70
2019-03-01T16:34:26.323Z,81.50
2019-03-01T16:37:10.804Z,81.60
2019-03-01T16:39:56.088Z,82.40
2019-03-01T16:42:42.020Z,81.10
2019-03-01T16:45:26.853Z,81.00
2019-03-01T16:48:13.585Z,80.80
2019-03-01T16:50:58.341Z,81.00
2019-03-01T16:53:43.134Z,80.80
2019-03-01T16:56:38.554Z,80.40
2019-03-01T16:59:23.992Z,80.90
2019-03-01T17:02:08.540Z,81.30
2019-03-01T17:04:52.989Z,81.60
2019-03-01T17:07:37.950Z,81.50
2019-03-01T17:10:22.605Z,81.90
2019-03-01T17:13:07.457Z,81.60
2019-03-01T17:15:52.208Z,81.70
2019-03-01T17:18:36.988Z,81.50
2019-03-01T17:21:21.388Z,81.80
2019-03-01T17:24:15.453Z,82.10
2019-03-01T17:27:05.771Z,82.10
2019-03-01T17:29:48.879Z,81.40
2019-03-01T17:32:34.224Z,81.60
2019-03-01T17:35:20.315Z,81.90
2019-03-01T17:38:07.455Z,81.80
2019-03-01T17:40:51.684Z,82.00
2019-03-01T17:43:36.855Z,81.70
2019-03-01T17:46:22.006Z,81.60
2019-03-01T17:49:15.424Z,81.40
2019-03-01T17:52:00.173Z,81.60
2019-03-01T17:54:44.523Z,81.70
2019-03-01T17:57:33.123Z,82.00
2019-03-01T18:00:17.397Z,82.40
2019-03-01T18:03:02.430Z,82.00
2019-03-01T18:05:47.406Z,81.50
2019-03-01T18:08:35.748Z,81.60
2019-03-01T18:11:19.200Z,81.80
2019-03-01T18:14:12.636Z,81.80
2019-03-01T18:17:00.406Z,81.70
2019-03-01T18:19:43.891Z,82.10
2019-03-01T18:22:28.477Z,82.50
2019-03-01T18:25:13.122Z,82.70
2019-03-01T18:28:07.433Z,83.20
2019-03-01T18:30:55.474Z,83.20
2019-03-01T18:33:48.109Z,83.10
2019-03-01T18:36:32.753Z,82.90
2019-03-01T18:39:15.903Z,82.50
2019-03-01T18:42:07.706Z,82.60
2019-03-01T18:44:52.351Z,82.40
2019-03-01T18:47:37.160Z,82.40
2019-03-01T18:50:21.843Z,83.10
2019-03-01T18:53:07.508Z,83.00
2019-03-01T18:56:00.763Z,83.10
2019-03-01T18:58:45.750Z,82.80
2019-03-01T19:01:32.152Z,82.60
2019-03-01T19:04:26.137Z,82.30
2019-03-01T19:07:03.842Z,82.30
2019-03-01T19:09:57.156Z,82.10
2019-03-01T19:12:44.887Z,82.60
2019-03-01T19:15:28.456Z,82.80
2019-03-01T19:18:16.695Z,82.60
2019-03-01T19:21:00.281Z,82.60
2019-03-01T19:23:54.095Z,82.50
2019-03-01T19:26:38.727Z,82.50
2019-03-01T19:29:23.116Z,82.90
2019-03-01T19:32:07.698Z,82.60
2019-03-01T19:34:52.814Z,82.30
2019-03-01T19:37:49.762Z,82.20
2019-03-01T19:40:34.041Z,82.00
2019-03-01T19:43:28.420Z,81.80
2019-03-01T19:46:21.890Z,81.50
2019-03-01T19:49:09.529Z,81.80
2019-03-01T19:51:54.146Z,81.80
2019-03-01T19:54:38.794Z,82.70
2019-03-01T19:57:23.164Z,81.70
2019-03-01T20:00:17.257Z,81.90
2019-03-01T20:03:11.290Z,81.60
2019-03-01T20:06:08.089Z,81.50
2019-03-01T20:08:51.328Z,81.50
2019-03-01T20:11:36.112Z,81.20
2019-03-01T20:14:20.569Z,82.40
2019-03-01T20:17:05.010Z,82.60
2019-03-01T20:19:58.412Z,82.50
2019-03-01T20:22:43.096Z,82.40
2019-03-01T20:25:27.888Z,82.30
2019-03-01T20:28:15.294Z,82.40
2019-03-01T20:31:01.625Z,82.50
2019-03-01T20:33:46.624Z,81.80
2019-03-01T20:36:31.065Z,81.60
2019-03-01T20:39:24.490Z,81.40
2019-03-01T20:42:09.128Z,81.20
2019-03-01T20:44:54.017Z,81.00
2019-03-01T20:47:38.508Z,80.90
2019-03-01T20:50:23.443Z,81.40
2019-03-01T20:53:10.087Z,81.30
2019-03-01T20:55:54.297Z,81.30
2019-03-01T20:58:39.567Z,81.30
2019-03-01T21:01:37.246Z,81.40
2019-03-01T21:04:20.149Z,81.00
2019-03-01T21:07:04.779Z,80.70
2019-03-01T21:09:49.744Z,80.90
2019-03-01T21:12:36.671Z,81.30
2019-03-01T21:15:21.425Z,81.40
2019-03-01T21:18:15.160Z,81.00
2019-03-01T21:20:59.976Z,80.60
2019-03-01T21:23:47.738Z,80.40
2019-03-01T21:26:31.407Z,80.70
2019-03-01T21:29:16.332Z,80.80
2019-03-01T21:32:11.776Z,80.80
2019-03-01T21:34:55.004Z,81.10
2019-03-01T21:37:46.880Z,80.80
2019-03-01T21:40:49.836Z,80.70
2019-03-01T21:43:36.683Z,81.20
2019-03-01T21:46:20.567Z,81.70
2019-03-01T21:49:04.852Z,81.00
2019-03-01T21:51:58.416Z,80.40
2019-03-01T21:54:43.136Z,80.00
2019-03-01T21:57:31.135Z,80.40
2019-03-01T22:00:14.493Z,80.50
2019-03-01T22:03:01.235Z,80.30
2019-03-01T22:05:48.519Z,79.70
2019-03-01T22:08:31.872Z,79.30
2019-03-01T22:11:26.260Z,79.00
2019-03-01T22:14:14.015Z,79.20
2019-03-01T22:16:57.136Z,78.50
2019-03-01T22:19:44.392Z,77.60
2019-03-01T22:22:38.871Z,77.70
2019-03-01T22:25:34.551Z,77.20
2019-03-01T22:28:21.330Z,77.30
2019-03-01T22:31:05.923Z,77.40
2019-03-01T22:33:52.568Z,77.50
2019-03-01T22:36:37.106Z,77.30
2019-03-01T22:39:21.680Z,77.40
2019-03-01T22:42:15.179Z,77.60
2019-03-01T22:45:00.843Z,77.00
2019-03-01T22:47:45.857Z,76.80
2019-03-01T22:50:30.471Z,76.80
2019-03-01T22:53:15.311Z,76.70
2019-03-01T22:55:59.838Z,76.80
2019-03-01T22:58:53.083Z,77.10
2019-03-01T23:01:40.935Z,76.70
2019-03-01T23:04:26.607Z,77.00
2019-03-01T23:07:11.908Z,77.20
2019-03-01T23:09:56.815Z,76.80
2019-03-01T23:12:43.686Z,77.10
2019-03-01T23:15:27.804Z,77.00
2019-03-01T23:18:12.547Z,77.50
2019-03-01T23:20:57.613Z,77.90
2019-03-01T23:23:43.991Z,78.00
2019-03-01T23:26:28.251Z,78.00
2019-03-01T23:29:21.429Z,78.20
2019-03-01T23:32:06.268Z,78.40
2019-03-01T23:34:50.885Z,78.30
2019-03-01T23:37:35.601Z,78.90
2019-03-01T23:40:21.828Z,79.00
2019-03-01T23:43:06.020Z,78.90
2019-03-01T23:45:53.854Z,78.90
2019-03-01T23:48:25.272Z,78.70
2019-03-01T23:51:10.604Z,78.40
2019-03-01T23:53:56.052Z,78.30
2019-03-01T23:56:49.620Z,78.60
2019-03-01T23:59:34.216Z,78.60
